sensor_id;sensor_type;location;lat;lon;timestamp;P1;durP1;ratioP1;P2;durP2;ratioP2
37529;SDS011;23374;52.758;6.872;2024-02-23T00:01:06;0.37;;;0.17;;
37529;SDS011;23374;52.758;6.872;2024-02-23T00:03:26;0.93;;;0.17;;
37529;SDS011;23374;52.758;6.872;2024-02-23T00:05:48;0.20;;;0.03;;
37529;SDS011;23374;52.758;6.872;2024-02-23T00:08:09;0.10;;;0.00;;
37529;SDS011;23374;52.758;6.872;2024-02-23T00:10:30;2.13;;;0.20;;
37529;SDS011;23374;52.758;6.872;2024-02-23T00:12:52;0.40;;;0.10;;
37529;SDS011;23374;52.758;6.872;2024-02-23T00:15:13;0.20;;;0.20;;
37529;SDS011;23374;52.758;6.872;2024-02-23T00:17:33;0.47;;;0.07;;
37529;SDS011;23374;52.758;6.872;2024-02-23T00:19:54;1.03;;;0.10;;
37529;SDS011;23374;52.758;6.872;2024-02-23T00:22:14;0.17;;;0.07;;
37529;SDS011;23374;52.758;6.872;2024-02-23T00:24:34;0.50;;;0.30;;
37529;SDS011;23374;52.758;6.872;2024-02-23T00:26:56;0.40;;;0.10;;
37529;SDS011;23374;52.758;6.872;2024-02-23T00:29:17;0.00;;;0.00;;
37529;SDS011;23374;52.758;6.872;2024-02-23T00:31:40;1.80;;;0.10;;
37529;SDS011;23374;52.758;6.872;2024-02-23T00:34:00;0.10;;;0.10;;
37529;SDS011;23374;52.758;6.872;2024-02-23T00:36:21;0.93;;;0.10;;
37529;SDS011;23374;52.758;6.872;2024-02-23T00:38:42;1.13;;;0.23;;
37529;SDS011;23374;52.758;6.872;2024-02-23T00:41:02;0.27;;;0.07;;
37529;SDS011;23374;52.758;6.872;2024-02-23T00:43:23;0.13;;;0.03;;
37529;SDS011;23374;52.758;6.872;2024-02-23T00:45:44;0.20;;;0.10;;
37529;SDS011;23374;52.758;6.872;2024-02-23T00:48:05;0.20;;;0.17;;
37529;SDS011;23374;52.758;6.872;2024-02-23T00:50:26;0.57;;;0.17;;
37529;SDS011;23374;52.758;6.872;2024-02-23T00:52:47;0.30;;;0.20;;
37529;SDS011;23374;52.758;6.872;2024-02-23T00:55:07;0.33;;;0.10;;
37529;SDS011;23374;52.758;6.872;2024-02-23T00:57:28;0.20;;;0.13;;
37529;SDS011;23374;52.758;6.872;2024-02-23T00:59:50;0.80;;;0.50;;
37529;SDS011;23374;52.758;6.872;2024-02-23T01:02:10;1.90;;;0.20;;
37529;SDS011;23374;52.758;6.872;2024-02-23T01:04:31;0.30;;;0.10;;
37529;SDS011;23374;52.758;6.872;2024-02-23T01:06:51;0.40;;;0.20;;
37529;SDS011;23374;52.758;6.872;2024-02-23T01:09:12;0.30;;;0.20;;
37529;SDS011;23374;52.758;6.872;2024-02-23T01:11:32;0.20;;;0.20;;
37529;SDS011;23374;52.758;6.872;2024-02-23T01:13:53;0.23;;;0.10;;
37529;SDS011;23374;52.758;6.872;2024-02-23T01:16:13;0.13;;;0.10;;
37529;SDS011;23374;52.758;6.872;2024-02-23T01:18:34;0.00;;;0.00;;
37529;SDS011;23374;52.758;6.872;2024-02-23T01:20:56;0.20;;;0.17;;
37529;SDS011;23374;52.758;6.872;2024-02-23T01:23:17;1.50;;;0.10;;
37529;SDS011;23374;52.758;6.872;2024-02-23T01:25:38;0.30;;;0.20;;
37529;SDS011;23374;52.758;6.872;2024-02-23T01:27:59;0.20;;;0.17;;
37529;SDS011;23374;52.758;6.872;2024-02-23T01:30:19;1.83;;;0.23;;
37529;SDS011;23374;52.758;6.872;2024-02-23T01:32:40;1.13;;;0.30;;
37529;SDS011;23374;52.758;6.872;2024-02-23T01:35:00;0.23;;;0.17;;
37529;SDS011;23374;52.758;6.872;2024-02-23T01:37:20;0.13;;;0.13;;
37529;SDS011;23374;52.758;6.872;2024-02-23T01:39:41;0.50;;;0.30;;
37529;SDS011;23374;52.758;6.872;2024-02-23T01:42:01;0.67;;;0.40;;
37529;SDS011;23374;52.758;6.872;2024-02-23T01:44:22;1.37;;;0.30;;
37529;SDS011;23374;52.758;6.872;2024-02-23T01:46:43;0.87;;;0.50;;
37529;SDS011;23374;52.758;6.872;2024-02-23T01:49:05;0.50;;;0.50;;
37529;SDS011;23374;52.758;6.872;2024-02-23T01:51:27;2.20;;;0.40;;
37529;SDS011;23374;52.758;6.872;2024-02-23T01:53:47;1.30;;;0.67;;
37529;SDS011;23374;52.758;6.872;2024-02-23T01:56:07;2.83;;;0.47;;
37529;SDS011;23374;52.758;6.872;2024-02-23T01:58:29;1.47;;;0.63;;
37529;SDS011;23374;52.758;6.872;2024-02-23T02:00:51;2.53;;;0.83;;
37529;SDS011;23374;52.758;6.872;2024-02-23T02:03:11;1.03;;;0.23;;
37529;SDS011;23374;52.758;6.872;2024-02-23T02:05:31;1.03;;;0.63;;
37529;SDS011;23374;52.758;6.872;2024-02-23T02:07:53;2.60;;;1.00;;
37529;SDS011;23374;52.758;6.872;2024-02-23T02:10:18;1.03;;;0.70;;
37529;SDS011;23374;52.758;6.872;2024-02-23T02:12:40;5.77;;;0.93;;
37529;SDS011;23374;52.758;6.872;2024-02-23T02:15:01;1.50;;;0.57;;
37529;SDS011;23374;52.758;6.872;2024-02-23T02:17:22;4.07;;;1.10;;
37529;SDS011;23374;52.758;6.872;2024-02-23T02:19:48;1.33;;;0.70;;
37529;SDS011;23374;52.758;6.872;2024-02-23T02:22:09;1.77;;;0.80;;
37529;SDS011;23374;52.758;6.872;2024-02-23T02:24:29;1.17;;;0.80;;
37529;SDS011;23374;52.758;6.872;2024-02-23T02:26:49;2.87;;;1.20;;
37529;SDS011;23374;52.758;6.872;2024-02-23T02:29:10;4.00;;;0.93;;
37529;SDS011;23374;52.758;6.872;2024-02-23T02:31:30;3.00;;;1.07;;
37529;SDS011;23374;52.758;6.872;2024-02-23T02:33:56;3.23;;;0.70;;
37529;SDS011;23374;52.758;6.872;2024-02-23T02:36:17;1.43;;;1.17;;
37529;SDS011;23374;52.758;6.872;2024-02-23T02:38:37;0.93;;;0.60;;
37529;SDS011;23374;52.758;6.872;2024-02-23T02:40:58;2.80;;;1.00;;
37529;SDS011;23374;52.758;6.872;2024-02-23T02:43:20;5.47;;;1.40;;
37529;SDS011;23374;52.758;6.872;2024-02-23T02:45:40;4.13;;;1.17;;
37529;SDS011;23374;52.758;6.872;2024-02-23T02:48:00;4.80;;;0.90;;
37529;SDS011;23374;52.758;6.872;2024-02-23T02:50:24;3.70;;;0.97;;
37529;SDS011;23374;52.758;6.872;2024-02-23T02:52:45;3.90;;;0.90;;
37529;SDS011;23374;52.758;6.872;2024-02-23T02:55:06;3.57;;;1.20;;
37529;SDS011;23374;52.758;6.872;2024-02-23T02:57:27;2.70;;;1.17;;
37529;SDS011;23374;52.758;6.872;2024-02-23T02:59:49;2.90;;;1.53;;
37529;SDS011;23374;52.758;6.872;2024-02-23T03:02:09;1.33;;;0.67;;
37529;SDS011;23374;52.758;6.872;2024-02-23T03:04:30;3.03;;;0.80;;
37529;SDS011;23374;52.758;6.872;2024-02-23T03:06:50;1.93;;;0.70;;
37529;SDS011;23374;52.758;6.872;2024-02-23T03:09:10;1.27;;;0.30;;
37529;SDS011;23374;52.758;6.872;2024-02-23T03:11:30;3.10;;;0.70;;
37529;SDS011;23374;52.758;6.872;2024-02-23T03:13:50;2.20;;;0.60;;
37529;SDS011;23374;52.758;6.872;2024-02-23T03:16:17;1.37;;;0.40;;
37529;SDS011;23374;52.758;6.872;2024-02-23T03:18:38;3.07;;;0.47;;
37529;SDS011;23374;52.758;6.872;2024-02-23T03:20:58;1.67;;;0.67;;
37529;SDS011;23374;52.758;6.872;2024-02-23T03:23:18;2.63;;;0.73;;
37529;SDS011;23374;52.758;6.872;2024-02-23T03:25:38;0.70;;;0.60;;
37529;SDS011;23374;52.758;6.872;2024-02-23T03:27:59;2.10;;;1.20;;
37529;SDS011;23374;52.758;6.872;2024-02-23T03:30:20;2.00;;;0.53;;
37529;SDS011;23374;52.758;6.872;2024-02-23T03:32:41;0.50;;;0.20;;
37529;SDS011;23374;52.758;6.872;2024-02-23T03:35:03;1.10;;;0.63;;
37529;SDS011;23374;52.758;6.872;2024-02-23T03:37:24;1.03;;;0.50;;
37529;SDS011;23374;52.758;6.872;2024-02-23T03:39:44;0.90;;;0.47;;
37529;SDS011;23374;52.758;6.872;2024-02-23T03:42:05;2.47;;;0.60;;
37529;SDS011;23374;52.758;6.872;2024-02-23T03:44:25;1.73;;;0.60;;
37529;SDS011;23374;52.758;6.872;2024-02-23T03:46:46;1.63;;;0.77;;
37529;SDS011;23374;52.758;6.872;2024-02-23T03:49:06;2.63;;;0.63;;
37529;SDS011;23374;52.758;6.872;2024-02-23T03:51:26;0.57;;;0.43;;
37529;SDS011;23374;52.758;6.872;2024-02-23T03:53:47;1.57;;;0.60;;
37529;SDS011;23374;52.758;6.872;2024-02-23T03:56:07;0.70;;;0.40;;
37529;SDS011;23374;52.758;6.872;2024-02-23T03:58:28;0.93;;;0.60;;
37529;SDS011;23374;52.758;6.872;2024-02-23T04:00:48;1.37;;;0.80;;
37529;SDS011;23374;52.758;6.872;2024-02-23T04:03:08;3.03;;;0.73;;
37529;SDS011;23374;52.758;6.872;2024-02-23T04:05:30;0.50;;;0.47;;
37529;SDS011;23374;52.758;6.872;2024-02-23T04:07:50;4.67;;;0.80;;
37529;SDS011;23374;52.758;6.872;2024-02-23T04:10:10;2.50;;;0.90;;
37529;SDS011;23374;52.758;6.872;2024-02-23T04:12:35;0.70;;;0.60;;
37529;SDS011;23374;52.758;6.872;2024-02-23T04:14:56;7.60;;;1.10;;
37529;SDS011;23374;52.758;6.872;2024-02-23T04:17:16;1.33;;;1.10;;
37529;SDS011;23374;52.758;6.872;2024-02-23T04:19:37;4.30;;;0.97;;
37529;SDS011;23374;52.758;6.872;2024-02-23T04:21:58;2.30;;;1.10;;
37529;SDS011;23374;52.758;6.872;2024-02-23T04:24:18;0.77;;;0.47;;
37529;SDS011;23374;52.758;6.872;2024-02-23T04:26:38;1.77;;;0.70;;
37529;SDS011;23374;52.758;6.872;2024-02-23T04:28:59;1.40;;;0.50;;
37529;SDS011;23374;52.758;6.872;2024-02-23T04:31:19;0.50;;;0.37;;
37529;SDS011;23374;52.758;6.872;2024-02-23T04:33:39;4.03;;;0.50;;
37529;SDS011;23374;52.758;6.872;2024-02-23T04:36:00;2.90;;;0.97;;
37529;SDS011;23374;52.758;6.872;2024-02-23T04:38:20;4.17;;;0.70;;
37529;SDS011;23374;52.758;6.872;2024-02-23T04:40:41;0.97;;;0.50;;
37529;SDS011;23374;52.758;6.872;2024-02-23T04:43:01;3.93;;;0.90;;
37529;SDS011;23374;52.758;6.872;2024-02-23T04:45:22;2.33;;;1.10;;
37529;SDS011;23374;52.758;6.872;2024-02-23T04:47:43;2.90;;;1.50;;
37529;SDS011;23374;52.758;6.872;2024-02-23T04:50:06;3.47;;;1.40;;
37529;SDS011;23374;52.758;6.872;2024-02-23T04:52:28;4.00;;;2.03;;
37529;SDS011;23374;52.758;6.872;2024-02-23T04:54:49;4.87;;;2.10;;
37529;SDS011;23374;52.758;6.872;2024-02-23T04:57:09;6.90;;;2.23;;
37529;SDS011;23374;52.758;6.872;2024-02-23T04:59:29;4.73;;;1.63;;
37529;SDS011;23374;52.758;6.872;2024-02-23T05:01:51;4.40;;;2.13;;
37529;SDS011;23374;52.758;6.872;2024-02-23T05:04:12;4.17;;;2.00;;
37529;SDS011;23374;52.758;6.872;2024-02-23T05:06:32;2.40;;;1.63;;
37529;SDS011;23374;52.758;6.872;2024-02-23T05:08:53;4.50;;;1.80;;
37529;SDS011;23374;52.758;6.872;2024-02-23T05:11:14;6.63;;;1.87;;
37529;SDS011;23374;52.758;6.872;2024-02-23T05:13:36;7.10;;;1.97;;
37529;SDS011;23374;52.758;6.872;2024-02-23T05:15:59;4.20;;;2.03;;
37529;SDS011;23374;52.758;6.872;2024-02-23T05:18:19;3.40;;;1.97;;
37529;SDS011;23374;52.758;6.872;2024-02-23T05:20:39;8.93;;;2.23;;
37529;SDS011;23374;52.758;6.872;2024-02-23T05:23:00;4.80;;;1.93;;
37529;SDS011;23374;52.758;6.872;2024-02-23T05:25:20;7.53;;;2.10;;
37529;SDS011;23374;52.758;6.872;2024-02-23T05:27:41;3.47;;;1.53;;
37529;SDS011;23374;52.758;6.872;2024-02-23T05:30:02;1.90;;;1.23;;
37529;SDS011;23374;52.758;6.872;2024-02-23T05:32:22;5.30;;;1.60;;
37529;SDS011;23374;52.758;6.872;2024-02-23T05:34:43;5.50;;;2.07;;
37529;SDS011;23374;52.758;6.872;2024-02-23T05:37:04;2.90;;;1.40;;
37529;SDS011;23374;52.758;6.872;2024-02-23T05:39:24;4.53;;;1.63;;
37529;SDS011;23374;52.758;6.872;2024-02-23T05:41:44;4.83;;;1.70;;
37529;SDS011;23374;52.758;6.872;2024-02-23T05:44:05;6.47;;;1.67;;
37529;SDS011;23374;52.758;6.872;2024-02-23T05:46:25;3.73;;;1.53;;
37529;SDS011;23374;52.758;6.872;2024-02-23T05:48:46;4.10;;;1.83;;
37529;SDS011;23374;52.758;6.872;2024-02-23T05:51:06;6.97;;;1.63;;
37529;SDS011;23374;52.758;6.872;2024-02-23T05:53:26;5.33;;;1.37;;
37529;SDS011;23374;52.758;6.872;2024-02-23T05:55:51;4.63;;;1.80;;
37529;SDS011;23374;52.758;6.872;2024-02-23T05:58:11;3.20;;;1.17;;
37529;SDS011;23374;52.758;6.872;2024-02-23T06:00:33;4.47;;;1.83;;
37529;SDS011;23374;52.758;6.872;2024-02-23T06:02:53;7.67;;;1.97;;
37529;SDS011;23374;52.758;6.872;2024-02-23T06:05:14;4.33;;;2.00;;
37529;SDS011;23374;52.758;6.872;2024-02-23T06:07:34;6.67;;;1.60;;
37529;SDS011;23374;52.758;6.872;2024-02-23T06:09:56;5.27;;;2.13;;
37529;SDS011;23374;52.758;6.872;2024-02-23T06:12:17;5.90;;;1.30;;
37529;SDS011;23374;52.758;6.872;2024-02-23T06:14:37;6.70;;;1.87;;
37529;SDS011;23374;52.758;6.872;2024-02-23T06:16:57;4.30;;;1.80;;
37529;SDS011;23374;52.758;6.872;2024-02-23T06:19:17;6.47;;;2.00;;
37529;SDS011;23374;52.758;6.872;2024-02-23T06:21:38;6.07;;;1.87;;
37529;SDS011;23374;52.758;6.872;2024-02-23T06:23:58;3.40;;;1.83;;
37529;SDS011;23374;52.758;6.872;2024-02-23T06:26:18;5.67;;;2.50;;
37529;SDS011;23374;52.758;6.872;2024-02-23T06:28:39;3.70;;;1.53;;
37529;SDS011;23374;52.758;6.872;2024-02-23T06:31:01;4.00;;;1.97;;
37529;SDS011;23374;52.758;6.872;2024-02-23T06:33:23;6.10;;;1.80;;
37529;SDS011;23374;52.758;6.872;2024-02-23T06:35:44;4.20;;;1.83;;
37529;SDS011;23374;52.758;6.872;2024-02-23T06:38:04;4.67;;;1.83;;
37529;SDS011;23374;52.758;6.872;2024-02-23T06:40:26;7.63;;;1.90;;
37529;SDS011;23374;52.758;6.872;2024-02-23T06:42:46;2.67;;;1.43;;
37529;SDS011;23374;52.758;6.872;2024-02-23T06:45:07;6.23;;;1.80;;
37529;SDS011;23374;52.758;6.872;2024-02-23T06:47:28;4.73;;;2.03;;
37529;SDS011;23374;52.758;6.872;2024-02-23T06:49:49;3.10;;;1.27;;
37529;SDS011;23374;52.758;6.872;2024-02-23T06:52:12;2.97;;;1.33;;
37529;SDS011;23374;52.758;6.872;2024-02-23T06:54:32;4.60;;;1.77;;
37529;SDS011;23374;52.758;6.872;2024-02-23T06:56:52;3.73;;;1.63;;
37529;SDS011;23374;52.758;6.872;2024-02-23T06:59:12;2.13;;;1.43;;
37529;SDS011;23374;52.758;6.872;2024-02-23T07:01:33;5.40;;;1.80;;
37529;SDS011;23374;52.758;6.872;2024-02-23T07:03:55;3.27;;;1.20;;
37529;SDS011;23374;52.758;6.872;2024-02-23T07:06:15;5.20;;;1.80;;
37529;SDS011;23374;52.758;6.872;2024-02-23T07:08:38;5.17;;;1.80;;
37529;SDS011;23374;52.758;6.872;2024-02-23T07:10:58;6.30;;;1.80;;
37529;SDS011;23374;52.758;6.872;2024-02-23T07:13:18;2.17;;;1.30;;
37529;SDS011;23374;52.758;6.872;2024-02-23T07:15:40;2.60;;;1.20;;
37529;SDS011;23374;52.758;6.872;2024-02-23T07:18:00;4.83;;;1.07;;
37529;SDS011;23374;52.758;6.872;2024-02-23T07:20:21;2.00;;;1.30;;
37529;SDS011;23374;52.758;6.872;2024-02-23T07:22:45;6.13;;;1.27;;
37529;SDS011;23374;52.758;6.872;2024-02-23T07:25:06;4.40;;;1.30;;
37529;SDS011;23374;52.758;6.872;2024-02-23T07:27:27;1.23;;;0.83;;
37529;SDS011;23374;52.758;6.872;2024-02-23T07:29:47;5.87;;;1.70;;
37529;SDS011;23374;52.758;6.872;2024-02-23T07:32:07;5.00;;;1.10;;
37529;SDS011;23374;52.758;6.872;2024-02-23T07:34:27;4.77;;;1.50;;
37529;SDS011;23374;52.758;6.872;2024-02-23T07:36:51;8.47;;;1.73;;
37529;SDS011;23374;52.758;6.872;2024-02-23T07:39:12;3.43;;;0.73;;
37529;SDS011;23374;52.758;6.872;2024-02-23T07:41:32;7.70;;;1.07;;
37529;SDS011;23374;52.758;6.872;2024-02-23T07:43:52;2.13;;;1.27;;
37529;SDS011;23374;52.758;6.872;2024-02-23T07:46:12;4.20;;;1.53;;
37529;SDS011;23374;52.758;6.872;2024-02-23T07:48:33;4.07;;;1.10;;
37529;SDS011;23374;52.758;6.872;2024-02-23T07:50:53;1.57;;;0.80;;
37529;SDS011;23374;52.758;6.872;2024-02-23T07:53:14;2.53;;;1.10;;
37529;SDS011;23374;52.758;6.872;2024-02-23T07:55:34;3.53;;;0.90;;
37529;SDS011;23374;52.758;6.872;2024-02-23T07:57:54;5.87;;;1.40;;
37529;SDS011;23374;52.758;6.872;2024-02-23T08:00:20;4.53;;;1.03;;
37529;SDS011;23374;52.758;6.872;2024-02-23T08:02:41;3.80;;;0.90;;
37529;SDS011;23374;52.758;6.872;2024-02-23T08:05:01;3.03;;;0.90;;
37529;SDS011;23374;52.758;6.872;2024-02-23T08:07:21;3.13;;;0.70;;
37529;SDS011;23374;52.758;6.872;2024-02-23T08:09:42;4.13;;;1.30;;
37529;SDS011;23374;52.758;6.872;2024-02-23T08:12:03;2.00;;;1.00;;
37529;SDS011;23374;52.758;6.872;2024-02-23T08:14:24;0.60;;;0.50;;
37529;SDS011;23374;52.758;6.872;2024-02-23T08:16:44;0.73;;;0.53;;
37529;SDS011;23374;52.758;6.872;2024-02-23T08:19:05;1.20;;;0.50;;
37529;SDS011;23374;52.758;6.872;2024-02-23T08:21:25;0.73;;;0.57;;
37529;SDS011;23374;52.758;6.872;2024-02-23T08:23:46;2.93;;;0.70;;
37529;SDS011;23374;52.758;6.872;2024-02-23T08:26:06;3.30;;;1.07;;
37529;SDS011;23374;52.758;6.872;2024-02-23T08:28:26;2.13;;;1.00;;
37529;SDS011;23374;52.758;6.872;2024-02-23T08:30:47;2.37;;;0.60;;
37529;SDS011;23374;52.758;6.872;2024-02-23T08:33:07;3.80;;;1.30;;
37529;SDS011;23374;52.758;6.872;2024-02-23T08:35:29;0.63;;;0.60;;
37529;SDS011;23374;52.758;6.872;2024-02-23T08:37:50;6.77;;;0.80;;
37529;SDS011;23374;52.758;6.872;2024-02-23T08:40:11;5.10;;;0.87;;
37529;SDS011;23374;52.758;6.872;2024-02-23T08:42:32;3.00;;;0.90;;
37529;SDS011;23374;52.758;6.872;2024-02-23T08:44:52;2.70;;;0.83;;
37529;SDS011;23374;52.758;6.872;2024-02-23T08:47:14;2.00;;;0.70;;
37529;SDS011;23374;52.758;6.872;2024-02-23T08:49:34;1.50;;;0.70;;
37529;SDS011;23374;52.758;6.872;2024-02-23T08:51:55;5.00;;;1.53;;
37529;SDS011;23374;52.758;6.872;2024-02-23T08:54:18;2.67;;;0.50;;
37529;SDS011;23374;52.758;6.872;2024-02-23T08:56:39;4.83;;;0.73;;
37529;SDS011;23374;52.758;6.872;2024-02-23T08:59:01;4.20;;;0.83;;
37529;SDS011;23374;52.758;6.872;2024-02-23T09:01:22;2.33;;;0.90;;
37529;SDS011;23374;52.758;6.872;2024-02-23T09:03:42;3.43;;;0.87;;
37529;SDS011;23374;52.758;6.872;2024-02-23T09:06:03;4.63;;;0.50;;
37529;SDS011;23374;52.758;6.872;2024-02-23T09:08:24;2.37;;;0.63;;
37529;SDS011;23374;52.758;6.872;2024-02-23T09:10:44;2.90;;;0.87;;
37529;SDS011;23374;52.758;6.872;2024-02-23T09:13:05;3.67;;;0.90;;
37529;SDS011;23374;52.758;6.872;2024-02-23T09:15:25;2.93;;;0.57;;
37529;SDS011;23374;52.758;6.872;2024-02-23T09:17:46;2.30;;;0.50;;
37529;SDS011;23374;52.758;6.872;2024-02-23T09:20:06;5.03;;;0.93;;
37529;SDS011;23374;52.758;6.872;2024-02-23T09:22:27;4.10;;;1.17;;
37529;SDS011;23374;52.758;6.872;2024-02-23T09:24:48;0.77;;;0.60;;
37529;SDS011;23374;52.758;6.872;2024-02-23T09:27:08;2.30;;;0.90;;
37529;SDS011;23374;52.758;6.872;2024-02-23T09:29:28;4.13;;;0.73;;
37529;SDS011;23374;52.758;6.872;2024-02-23T09:31:49;0.90;;;0.63;;
37529;SDS011;23374;52.758;6.872;2024-02-23T09:34:10;3.83;;;0.80;;
37529;SDS011;23374;52.758;6.872;2024-02-23T09:36:30;0.33;;;0.30;;
37529;SDS011;23374;52.758;6.872;2024-02-23T09:38:51;2.50;;;0.93;;
37529;SDS011;23374;52.758;6.872;2024-02-23T09:41:21;1.07;;;0.60;;
37529;SDS011;23374;52.758;6.872;2024-02-23T09:43:43;4.57;;;1.10;;
37529;SDS011;23374;52.758;6.872;2024-02-23T09:46:06;2.23;;;0.57;;
37529;SDS011;23374;52.758;6.872;2024-02-23T09:48:26;2.07;;;0.80;;
37529;SDS011;23374;52.758;6.872;2024-02-23T09:50:48;2.23;;;1.00;;
37529;SDS011;23374;52.758;6.872;2024-02-23T09:53:11;2.37;;;0.70;;
37529;SDS011;23374;52.758;6.872;2024-02-23T09:55:33;2.30;;;0.70;;
37529;SDS011;23374;52.758;6.872;2024-02-23T09:57:55;3.17;;;0.87;;
37529;SDS011;23374;52.758;6.872;2024-02-23T10:00:18;2.17;;;0.50;;
37529;SDS011;23374;52.758;6.872;2024-02-23T10:02:39;2.80;;;0.90;;
37529;SDS011;23374;52.758;6.872;2024-02-23T10:05:00;6.60;;;0.63;;
37529;SDS011;23374;52.758;6.872;2024-02-23T10:07:23;1.87;;;0.50;;
37529;SDS011;23374;52.758;6.872;2024-02-23T10:09:45;1.80;;;0.43;;
37529;SDS011;23374;52.758;6.872;2024-02-23T10:12:06;4.37;;;0.83;;
37529;SDS011;23374;52.758;6.872;2024-02-23T10:14:27;1.67;;;0.40;;
37529;SDS011;23374;52.758;6.872;2024-02-23T10:16:48;3.27;;;0.57;;
37529;SDS011;23374;52.758;6.872;2024-02-23T10:19:13;3.53;;;0.70;;
37529;SDS011;23374;52.758;6.872;2024-02-23T10:21:34;2.60;;;0.80;;
37529;SDS011;23374;52.758;6.872;2024-02-23T10:23:55;3.27;;;0.60;;
37529;SDS011;23374;52.758;6.872;2024-02-23T10:26:15;3.07;;;0.47;;
37529;SDS011;23374;52.758;6.872;2024-02-23T10:28:40;3.13;;;0.67;;
37529;SDS011;23374;52.758;6.872;2024-02-23T10:31:00;4.53;;;0.80;;
37529;SDS011;23374;52.758;6.872;2024-02-23T10:33:22;2.03;;;0.40;;
37529;SDS011;23374;52.758;6.872;2024-02-23T10:35:46;1.47;;;0.57;;
37529;SDS011;23374;52.758;6.872;2024-02-23T10:38:08;2.77;;;0.43;;
37529;SDS011;23374;52.758;6.872;2024-02-23T10:40:31;2.90;;;0.80;;
37529;SDS011;23374;52.758;6.872;2024-02-23T10:42:56;3.40;;;0.87;;
37529;SDS011;23374;52.758;6.872;2024-02-23T10:45:22;0.67;;;0.47;;
37529;SDS011;23374;52.758;6.872;2024-02-23T10:47:42;1.73;;;0.63;;
37529;SDS011;23374;52.758;6.872;2024-02-23T10:50:04;2.10;;;0.70;;
37529;SDS011;23374;52.758;6.872;2024-02-23T10:52:26;2.13;;;0.53;;
37529;SDS011;23374;52.758;6.872;2024-02-23T10:54:46;0.60;;;0.50;;
37529;SDS011;23374;52.758;6.872;2024-02-23T10:57:08;2.37;;;0.50;;
37529;SDS011;23374;52.758;6.872;2024-02-23T10:59:30;4.90;;;0.90;;
37529;SDS011;23374;52.758;6.872;2024-02-23T11:01:51;3.40;;;0.80;;
37529;SDS011;23374;52.758;6.872;2024-02-23T11:04:14;1.40;;;0.33;;
37529;SDS011;23374;52.758;6.872;2024-02-23T11:06:36;0.37;;;0.33;;
37529;SDS011;23374;52.758;6.872;2024-02-23T11:09:06;2.87;;;0.50;;
37529;SDS011;23374;52.758;6.872;2024-02-23T11:11:28;2.00;;;0.53;;
37529;SDS011;23374;52.758;6.872;2024-02-23T11:13:55;3.00;;;0.60;;
37529;SDS011;23374;52.758;6.872;2024-02-23T11:16:23;1.37;;;0.57;;
37529;SDS011;23374;52.758;6.872;2024-02-23T11:18:45;0.77;;;0.43;;
37529;SDS011;23374;52.758;6.872;2024-02-23T11:21:08;2.00;;;0.47;;
37529;SDS011;23374;52.758;6.872;2024-02-23T11:23:47;0.70;;;0.47;;
37529;SDS011;23374;52.758;6.872;2024-02-23T11:26:12;3.20;;;0.63;;
37529;SDS011;23374;52.758;6.872;2024-02-23T11:28:33;0.90;;;0.30;;
37529;SDS011;23374;52.758;6.872;2024-02-23T11:30:53;1.00;;;0.47;;
37529;SDS011;23374;52.758;6.872;2024-02-23T11:33:14;2.40;;;0.73;;
37529;SDS011;23374;52.758;6.872;2024-02-23T11:35:34;3.47;;;0.77;;
37529;SDS011;23374;52.758;6.872;2024-02-23T11:37:57;2.83;;;0.90;;
37529;SDS011;23374;52.758;6.872;2024-02-23T11:40:21;3.97;;;0.90;;
37529;SDS011;23374;52.758;6.872;2024-02-23T11:42:42;3.30;;;0.97;;
37529;SDS011;23374;52.758;6.872;2024-02-23T11:45:06;1.40;;;0.80;;
37529;SDS011;23374;52.758;6.872;2024-02-23T11:47:27;0.53;;;0.20;;
37529;SDS011;23374;52.758;6.872;2024-02-23T11:49:47;1.53;;;0.50;;
37529;SDS011;23374;52.758;6.872;2024-02-23T11:52:09;2.00;;;0.47;;
37529;SDS011;23374;52.758;6.872;2024-02-23T11:54:31;6.70;;;0.87;;
37529;SDS011;23374;52.758;6.872;2024-02-23T11:56:52;6.23;;;1.03;;
37529;SDS011;23374;52.758;6.872;2024-02-23T11:59:12;2.77;;;0.70;;
37529;SDS011;23374;52.758;6.872;2024-02-23T12:01:33;1.13;;;0.40;;
37529;SDS011;23374;52.758;6.872;2024-02-23T12:03:54;2.73;;;0.70;;
37529;SDS011;23374;52.758;6.872;2024-02-23T12:06:15;4.27;;;0.80;;
37529;SDS011;23374;52.758;6.872;2024-02-23T12:08:37;0.97;;;0.30;;
37529;SDS011;23374;52.758;6.872;2024-02-23T12:10:57;4.60;;;0.80;;
37529;SDS011;23374;52.758;6.872;2024-02-23T12:13:19;2.93;;;0.53;;
37529;SDS011;23374;52.758;6.872;2024-02-23T12:15:40;1.77;;;0.80;;
37529;SDS011;23374;52.758;6.872;2024-02-23T12:18:00;5.70;;;0.90;;
37529;SDS011;23374;52.758;6.872;2024-02-23T12:20:23;5.00;;;1.00;;
37529;SDS011;23374;52.758;6.872;2024-02-23T12:22:43;3.70;;;0.80;;
37529;SDS011;23374;52.758;6.872;2024-02-23T12:25:05;2.03;;;0.80;;
37529;SDS011;23374;52.758;6.872;2024-02-23T12:27:26;3.07;;;0.73;;
37529;SDS011;23374;52.758;6.872;2024-02-23T12:29:52;1.00;;;0.50;;
37529;SDS011;23374;52.758;6.872;2024-02-23T12:32:13;2.37;;;0.97;;
37529;SDS011;23374;52.758;6.872;2024-02-23T12:34:34;1.87;;;0.60;;
37529;SDS011;23374;52.758;6.872;2024-02-23T12:36:55;4.23;;;0.87;;
37529;SDS011;23374;52.758;6.872;2024-02-23T12:39:15;1.97;;;0.60;;
37529;SDS011;23374;52.758;6.872;2024-02-23T12:41:35;1.87;;;0.70;;
37529;SDS011;23374;52.758;6.872;2024-02-23T12:43:56;4.07;;;0.63;;
37529;SDS011;23374;52.758;6.872;2024-02-23T12:46:17;2.13;;;0.63;;
37529;SDS011;23374;52.758;6.872;2024-02-23T12:48:38;2.30;;;0.97;;
37529;SDS011;23374;52.758;6.872;2024-02-23T12:50:58;2.60;;;1.00;;
37529;SDS011;23374;52.758;6.872;2024-02-23T12:53:38;3.63;;;1.00;;
37529;SDS011;23374;52.758;6.872;2024-02-23T12:56:04;7.37;;;1.00;;
37529;SDS011;23374;52.758;6.872;2024-02-23T12:58:28;1.97;;;0.80;;
37529;SDS011;23374;52.758;6.872;2024-02-23T13:00:48;4.37;;;1.23;;
37529;SDS011;23374;52.758;6.872;2024-02-23T13:03:09;1.57;;;0.63;;
37529;SDS011;23374;52.758;6.872;2024-02-23T13:05:29;5.57;;;0.90;;
37529;SDS011;23374;52.758;6.872;2024-02-23T13:07:49;1.33;;;0.67;;
37529;SDS011;23374;52.758;6.872;2024-02-23T13:10:09;2.83;;;1.00;;
37529;SDS011;23374;52.758;6.872;2024-02-23T13:12:30;5.13;;;1.00;;
37529;SDS011;23374;52.758;6.872;2024-02-23T13:14:53;3.50;;;0.80;;
37529;SDS011;23374;52.758;6.872;2024-02-23T13:17:14;4.27;;;1.00;;
37529;SDS011;23374;52.758;6.872;2024-02-23T13:19:34;2.90;;;1.00;;
37529;SDS011;23374;52.758;6.872;2024-02-23T13:21:54;1.70;;;0.80;;
37529;SDS011;23374;52.758;6.872;2024-02-23T13:24:15;1.83;;;0.90;;
37529;SDS011;23374;52.758;6.872;2024-02-23T13:26:36;1.60;;;1.00;;
37529;SDS011;23374;52.758;6.872;2024-02-23T13:28:56;3.63;;;1.00;;
37529;SDS011;23374;52.758;6.872;2024-02-23T13:31:16;4.47;;;0.93;;
37529;SDS011;23374;52.758;6.872;2024-02-23T13:33:37;2.20;;;0.80;;
37529;SDS011;23374;52.758;6.872;2024-02-23T13:35:57;5.30;;;1.00;;
37529;SDS011;23374;52.758;6.872;2024-02-23T13:38:18;1.87;;;0.80;;
37529;SDS011;23374;52.758;6.872;2024-02-23T13:40:38;3.30;;;1.07;;
37529;SDS011;23374;52.758;6.872;2024-02-23T13:42:59;1.90;;;0.80;;
37529;SDS011;23374;52.758;6.872;2024-02-23T13:45:20;3.10;;;1.00;;
37529;SDS011;23374;52.758;6.872;2024-02-23T13:47:43;1.57;;;0.73;;
37529;SDS011;23374;52.758;6.872;2024-02-23T13:50:16;1.43;;;0.90;;
37529;SDS011;23374;52.758;6.872;2024-02-23T13:52:37;3.40;;;0.90;;
37529;SDS011;23374;52.758;6.872;2024-02-23T13:54:57;3.40;;;1.20;;
37529;SDS011;23374;52.758;6.872;2024-02-23T13:57:17;7.50;;;1.13;;
37529;SDS011;23374;52.758;6.872;2024-02-23T13:59:37;1.60;;;0.80;;
37529;SDS011;23374;52.758;6.872;2024-02-23T14:02:00;1.33;;;1.10;;
37529;SDS011;23374;52.758;6.872;2024-02-23T14:04:21;1.03;;;0.63;;
37529;SDS011;23374;52.758;6.872;2024-02-23T14:06:41;2.27;;;1.00;;
37529;SDS011;23374;52.758;6.872;2024-02-23T14:09:02;6.47;;;1.47;;
37529;SDS011;23374;52.758;6.872;2024-02-23T14:11:23;2.03;;;1.23;;